Brownton, MN (55312)

9:11 PM CDT on March 28, 2015 (GMT -0500)
Hutchinson Municipal-Butler | | Change Station
CLOSE
Current Station
Airport
Location: Hutchinson,
Elevation: 1060 ft
Nearby Weather Stations
Active Advisory: Wind Advisory

Elev 1060 ft 44.86 °N, 94.39 °W | Updated 18 minutes ago

Partly Cloudy
Partly Cloudy
38 °F
Feels Like 30 °F
N
12
Wind Variable Wind from SE

Today
High -- | Low -- °F
--% Chance of Precip.
Yesterday
High -- | Low -- °F
Precip. -- in
7:06 AM 7:39 PM
Waxing Gibbous, 67% visible
Pressure 29.98 in
Visibility 10.0 miles
Clouds Clear
Windchill 30 °F
Dew Point 31 °F
Humidity 76%
Rainfall 0.00 in
Snow Depth Not available.
UV 0 out of 12
Pollen 1.80 out of 12
Air Quality Not available.
Flu Activity Not available.
METAR KHCD 290153Z AUTO 13010KT 10SM CLR 03/M01 A2998 RMK AO2 T00311008

More Conditions Fewer Conditions

Pressure 29.98 in
Visibility 10.0 miles
Clouds Clear
Windchill 30 °F
Dew Point 31 °F
Humidity 76%
Rainfall 0.00 in
Snow Depth Not available.
UV 0 out of 12
Pollen 1.80 out of 12
Air Quality Not available.
Flu Activity Not available.
METAR KHCD 290153Z AUTO 13010KT 10SM CLR 03/M01 A2998 RMK AO2 T00311008

More Conditions Fewer Conditions

10-Day Weather Forecast

Almanac

Astronomy

Mar. 28, 2015 Rise Set
Actual Time
Civil Twilight
Nautical Twilight
Astronomical Twilight
Moon
Length of Visible Light
Length of Day
Tomorrow will be .
, % of the Moon is Illuminated

Today's Extremes

State Highs State Lows

Community

WunderPhotos

Upload Photos

1,809,155 photos uploaded!

WunderBlogs® & News

Nearby

Air Quality

  Air Quality AQ Index Pollutant
Not available.

Snow Depth

Station Depth Elevation

Earthquake Activity

City Distance Mag. Time & Date
Minimum magnitude displayed is 2.5.

Coastal Water Temperatures

Place Temperature

Stations

Nearby Weather Stations

Station Location Temp. Windchill Dew Point Humidity Wind Precip. Elev Updated Type
                   
Wind Advisory
Statement as of 2:48 PM CDT on March 28, 2015

... Wind Advisory in effect from 11 am to 6 PM CDT Sunday...

The National Weather Service in Twin Cities/Chanhassen has issued
a Wind Advisory... which is in effect from 11 am to 6 PM CDT
Sunday.

* Timing... from late morning through the afternoon.

* Winds... northwest 30 to 35 mph with gusts to 45 mph.

* Impacts... driving may be difficult at times... especially for
high profile and light weight vehicles. Unsecured outdoor items
will be blown around.

Precautionary/preparedness actions...

A Wind Advisory means that sustained winds of 30 to 39 mph or
gusts between 45 and 57 mph are expected. Winds this strong can
make driving difficult... especially for high profile vehicles.
Use extra caution.